createdAt,value
2023-12-11T00:00:57.052Z,17
2023-12-11T00:03:57.005Z,20
2023-12-11T00:06:57.013Z,10
2023-12-11T00:09:56.957Z,16
2023-12-11T00:11:57.009Z,20
2023-12-11T00:14:59.425Z,23
2023-12-11T00:16:58.298Z,11
2023-12-11T00:19:57.076Z,21
2023-12-11T00:22:56.952Z,24
2023-12-11T00:25:57.017Z,20
2023-12-11T00:28:57.023Z,30
2023-12-11T00:31:57.009Z,30
2023-12-11T00:33:57.010Z,10
2023-12-11T00:36:56.973Z,16
2023-12-11T00:38:56.990Z,30
2023-12-11T00:41:57.039Z,19
2023-12-11T00:44:56.968Z,25
2023-12-11T00:46:56.990Z,25
2023-12-11T00:48:57.137Z,22
2023-12-11T00:51:57.000Z,31
2023-12-11T00:53:56.982Z,40
2023-12-11T00:55:56.989Z,35
2023-12-11T00:58:56.988Z,25
2023-12-11T01:00:57.057Z,30
2023-12-11T01:02:57.089Z,20
2023-12-11T01:05:56.992Z,32
2023-12-11T01:07:57.011Z,36
2023-12-11T01:09:57.012Z,29
2023-12-11T01:12:57.019Z,33
2023-12-11T01:15:56.984Z,23
2023-12-11T01:17:57.233Z,21
2023-12-11T01:19:57.037Z,34
2023-12-11T01:22:56.972Z,30
2023-12-11T01:25:56.974Z,38
2023-12-11T01:27:57.028Z,35
2023-12-11T01:30:57.035Z,37
2023-12-11T01:32:57.034Z,26
2023-12-11T01:35:56.989Z,73
2023-12-11T01:38:56.996Z,50
2023-12-11T01:41:56.973Z,39
2023-12-11T01:44:56.993Z,41
2023-12-11T01:46:56.979Z,36
2023-12-11T01:49:57.020Z,38
2023-12-11T01:52:56.972Z,44
2023-12-11T01:54:57.081Z,57
2023-12-11T01:57:57.038Z,45
2023-12-11T01:59:57.021Z,18
2023-12-11T02:02:57.008Z,33
2023-12-11T02:04:57.056Z,23
2023-12-11T02:07:56.994Z,36
2023-12-11T02:09:56.986Z,55
2023-12-11T02:12:57.009Z,40
2023-12-11T02:15:57.036Z,61
2023-12-11T02:18:57.054Z,40
2023-12-11T02:20:56.994Z,41
2023-12-11T02:23:56.974Z,54
2023-12-11T02:26:56.973Z,30
2023-12-11T02:28:57.085Z,35
2023-12-11T02:31:56.966Z,43
2023-12-11T02:34:57.007Z,47
2023-12-11T02:36:57.079Z,67
2023-12-11T02:39:57.042Z,43
2023-12-11T02:42:57.013Z,69
2023-12-11T02:45:57.002Z,47
2023-12-11T02:47:57.133Z,71
2023-12-11T02:50:56.990Z,46
2023-12-11T02:52:56.986Z,58
2023-12-11T02:55:57.003Z,79
2023-12-11T02:58:56.964Z,51
2023-12-11T03:01:57.014Z,55
2023-12-11T03:03:57.046Z,77
2023-12-11T03:06:57.006Z,50
2023-12-11T03:08:57.025Z,47
2023-12-11T03:10:56.993Z,92
2023-12-11T03:12:57.032Z,93
2023-12-11T03:15:57.032Z,56
2023-12-11T03:18:57.022Z,41
2023-12-11T03:21:57.216Z,65
2023-12-11T03:23:57.001Z,73
2023-12-11T03:26:56.965Z,39
2023-12-11T03:28:57.053Z,45
2023-12-11T03:31:57.008Z,40
2023-12-11T03:34:57.032Z,48
2023-12-11T03:36:57.041Z,42
2023-12-11T03:39:57.023Z,48
2023-12-11T03:42:56.987Z,55
2023-12-11T03:44:57.033Z,53
2023-12-11T03:47:57.067Z,58
2023-12-11T03:50:57.021Z,71
2023-12-11T03:52:56.983Z,74
2023-12-11T03:54:57.048Z,42
2023-12-11T03:56:57.031Z,68
2023-12-11T03:59:57.000Z,59
2023-12-11T04:02:56.986Z,28
2023-12-11T04:05:57.080Z,34
2023-12-11T04:08:56.993Z,39
2023-12-11T04:10:57.040Z,24
2023-12-11T04:12:57.002Z,25
2023-12-11T04:15:57.028Z,45
2023-12-11T04:18:59.474Z,31
2023-12-11T04:20:57.041Z,40
2023-12-11T04:23:57.271Z,23
2023-12-11T04:25:57.029Z,41
2023-12-11T04:28:56.975Z,18
2023-12-11T04:31:57.000Z,31
2023-12-11T04:34:56.974Z,14
2023-12-11T04:36:57.104Z,17
2023-12-11T04:38:57.027Z,14
2023-12-11T04:41:57.008Z,23
2023-12-11T04:44:56.987Z,28
2023-12-11T04:46:57.008Z,20
2023-12-11T04:48:57.137Z,42
2023-12-11T04:51:57.011Z,40
2023-12-11T04:54:56.987Z,32
2023-12-11T04:56:57.067Z,53
2023-12-11T04:59:56.957Z,15
2023-12-11T05:01:57.093Z,30
2023-12-11T05:04:56.970Z,31
2023-12-11T05:06:57.075Z,25
2023-12-11T05:08:57.015Z,25
2023-12-11T05:11:56.989Z,32
2023-12-11T05:13:57.010Z,37
2023-12-11T05:16:57.006Z,27
2023-12-11T05:18:57.080Z,24
2023-12-11T05:21:57.143Z,44
2023-12-11T05:23:56.982Z,46
2023-12-11T05:25:56.991Z,41
2023-12-11T05:28:56.986Z,37
2023-12-11T05:30:57.059Z,46
2023-12-11T05:33:57.074Z,46
2023-12-11T05:36:57.068Z,52
2023-12-11T05:39:58.024Z,42
2023-12-11T05:41:57.011Z,55
2023-12-11T05:44:57.013Z,31
2023-12-11T05:47:57.074Z,24
2023-12-11T05:49:57.092Z,51
2023-12-11T05:52:57.015Z,48
2023-12-11T05:54:57.034Z,61
2023-12-11T05:57:57.038Z,27
2023-12-11T05:59:57.008Z,41
2023-12-11T06:02:56.994Z,29
2023-12-11T06:05:56.999Z,57
2023-12-11T06:08:57.024Z,39
2023-12-11T06:11:56.984Z,46
2023-12-11T06:13:57.003Z,53
2023-12-11T06:15:57.045Z,50
2023-12-11T06:17:57.131Z,43
2023-12-11T06:19:57.064Z,35
2023-12-11T06:22:56.984Z,45
2023-12-11T06:24:57.047Z,47
2023-12-11T06:27:57.049Z,50
2023-12-11T06:30:57.020Z,43
2023-12-11T06:33:57.063Z,38
2023-12-11T06:35:57.037Z,50
2023-12-11T06:38:57.053Z,30
2023-12-11T06:41:58.171Z,53
2023-12-11T06:43:57.037Z,49
2023-12-11T06:46:57.021Z,43
2023-12-11T06:48:57.142Z,54
2023-12-11T06:51:57.004Z,55
2023-12-11T06:53:57.038Z,38
2023-12-11T06:55:57.002Z,68
2023-12-11T06:58:57.020Z,59
2023-12-11T07:01:57.100Z,69
2023-12-11T07:05:57.101Z,64
2023-12-11T07:08:57.021Z,39
2023-12-11T07:11:56.987Z,51
2023-12-11T07:13:57.223Z,67
2023-12-11T07:16:57.011Z,78
2023-12-11T07:19:57.195Z,64
2023-12-11T07:22:57.333Z,39
2023-12-11T07:25:56.976Z,64
2023-12-11T07:27:57.060Z,63
2023-12-11T07:30:57.030Z,63
2023-12-11T07:33:57.553Z,33
2023-12-11T07:35:57.076Z,55
2023-12-11T07:38:57.045Z,58
2023-12-11T07:41:57.022Z,55
2023-12-11T07:44:57.053Z,57
2023-12-11T07:47:57.056Z,67
2023-12-11T07:50:57.051Z,46
2023-12-11T07:52:57.023Z,81
2023-12-11T07:54:57.076Z,73
2023-12-11T07:57:57.016Z,60
2023-12-11T08:00:57.085Z,60
2023-12-11T08:02:57.046Z,53
2023-12-11T08:05:57.050Z,92
2023-12-11T08:08:57.073Z,77
2023-12-11T08:11:56.966Z,95
2023-12-11T08:13:57.022Z,78
2023-12-11T08:16:56.970Z,65
2023-12-11T08:18:57.070Z,57
2023-12-11T08:20:57.023Z,63
2023-12-11T08:23:57.001Z,50
2023-12-11T08:25:57.023Z,82
2023-12-11T08:28:58.330Z,96
2023-12-11T08:31:56.996Z,54
2023-12-11T08:33:57.061Z,87
2023-12-11T08:36:57.051Z,79
2023-12-11T08:39:57.011Z,97
2023-12-11T08:41:57.028Z,75
2023-12-11T08:44:57.003Z,83
2023-12-11T08:46:57.000Z,88
2023-12-11T08:48:57.207Z,82
2023-12-11T08:51:57.012Z,75
2023-12-11T08:53:56.999Z,87
2023-12-11T08:55:57.030Z,81
2023-12-11T08:58:57.005Z,54
2023-12-11T09:00:57.117Z,77
2023-12-11T09:02:57.013Z,69
2023-12-11T09:05:57.428Z,56
2023-12-11T09:07:57.058Z,106
2023-12-11T09:10:57.027Z,107
2023-12-11T09:12:57.038Z,112
2023-12-11T09:15:57.148Z,105
2023-12-11T09:18:57.069Z,91
2023-12-11T09:20:57.057Z,87
2023-12-11T09:23:57.018Z,61
2023-12-11T09:26:57.023Z,66
2023-12-11T09:28:57.078Z,105
2023-12-11T09:32:57.173Z,96
2023-12-11T09:35:57.139Z,78
2023-12-11T09:38:57.012Z,113
2023-12-11T09:41:57.030Z,79
2023-12-11T09:43:58.407Z,99
2023-12-11T09:46:57.031Z,100
2023-12-11T09:48:57.059Z,93
2023-12-11T09:50:57.014Z,132
2023-12-11T09:52:57.037Z,108
2023-12-11T09:55:57.038Z,83
2023-12-11T09:58:57.005Z,105
2023-12-11T10:01:57.136Z,124
2023-12-11T10:03:57.046Z,124
2023-12-11T10:06:57.112Z,94
2023-12-11T10:09:57.051Z,96
2023-12-11T10:11:57.045Z,100
2023-12-11T10:14:57.048Z,102
2023-12-11T10:17:57.052Z,138
2023-12-11T10:19:57.062Z,122
2023-12-11T10:21:57.041Z,119
2023-12-11T10:23:57.071Z,111
2023-12-11T10:26:57.051Z,91
2023-12-11T10:29:56.981Z,76
2023-12-11T10:31:57.074Z,124
2023-12-11T10:34:57.102Z,69
2023-12-11T10:36:57.034Z,129
2023-12-11T10:38:57.264Z,112
2023-12-11T10:41:57.016Z,116
2023-12-11T10:44:57.120Z,155
2023-12-11T10:47:57.167Z,121
2023-12-11T10:50:57.003Z,97
2023-12-11T10:53:58.314Z,135
2023-12-11T10:55:57.117Z,123
2023-12-11T10:57:57.027Z,102
2023-12-11T10:59:57.028Z,126
2023-12-11T11:01:57.131Z,141
2023-12-11T11:04:57.044Z,125
2023-12-11T11:06:57.062Z,130
2023-12-11T11:09:57.037Z,119
2023-12-11T11:12:57.060Z,163
2023-12-11T11:14:57.431Z,127
2023-12-11T11:16:57.023Z,149
2023-12-11T11:18:57.058Z,130
2023-12-11T11:21:57.056Z,129
2023-12-11T11:24:57.110Z,129
2023-12-11T11:27:57.032Z,88
2023-12-11T11:30:57.035Z,132
2023-12-11T11:32:57.119Z,127
2023-12-11T11:35:57.032Z,112
2023-12-11T11:38:57.017Z,114
2023-12-11T11:41:57.015Z,132
2023-12-11T11:43:57.027Z,101
2023-12-11T11:46:57.144Z,95
2023-12-11T11:49:57.078Z,96
2023-12-11T11:52:56.989Z,129
2023-12-11T11:54:57.048Z,113
2023-12-11T11:56:57.027Z,115
2023-12-11T11:59:57.246Z,126
2023-12-11T12:02:57.031Z,85
2023-12-11T12:05:57.340Z,113
2023-12-11T12:07:57.025Z,120
2023-12-11T12:10:57.040Z,75
2023-12-11T12:13:57.048Z,100
2023-12-11T12:16:57.160Z,108
2023-12-11T12:18:57.136Z,91
2023-12-11T12:21:57.014Z,75
2023-12-11T12:24:57.033Z,79
2023-12-11T12:27:57.055Z,83
2023-12-11T12:29:57.026Z,67
2023-12-11T12:32:57.049Z,80
2023-12-11T12:35:57.050Z,98
2023-12-11T12:38:57.062Z,70
2023-12-11T12:41:57.044Z,64
2023-12-11T12:44:57.024Z,103
2023-12-11T12:46:57.111Z,84
2023-12-11T12:49:57.065Z,75
2023-12-11T12:52:57.048Z,73
2023-12-11T12:55:57.030Z,87
2023-12-11T12:57:57.069Z,109
2023-12-11T12:59:57.016Z,98
2023-12-11T13:01:57.167Z,67
2023-12-11T13:04:57.165Z,106
2023-12-11T13:06:57.057Z,102
2023-12-11T13:09:57.068Z,80
2023-12-11T13:11:57.063Z,107
2023-12-11T13:14:57.074Z,103
2023-12-11T13:16:57.086Z,98
2023-12-11T13:19:57.169Z,116
2023-12-11T13:24:01.030Z,135
2023-12-11T13:25:58.836Z,110
2023-12-11T13:28:58.818Z,116
2023-12-11T13:31:58.824Z,105
2023-12-11T13:34:58.847Z,118
2023-12-11T13:37:58.817Z,118
2023-12-11T13:40:58.794Z,107
2023-12-11T13:43:59.034Z,111
2023-12-11T13:46:58.834Z,109
2023-12-11T13:48:59.145Z,109
2023-12-11T13:50:58.793Z,111
2023-12-11T13:53:59.053Z,108
2023-12-11T13:55:58.828Z,119
2023-12-11T13:57:58.862Z,105
2023-12-11T13:59:58.846Z,119
2023-12-11T14:03:02.550Z,121
2023-12-11T14:04:58.934Z,98
2023-12-11T14:06:59.125Z,125
2023-12-11T14:09:58.932Z,112
2023-12-11T14:12:58.874Z,110
2023-12-11T14:14:58.833Z,135
2023-12-11T14:16:58.906Z,107
2023-12-11T14:19:58.888Z,125
2023-12-11T14:21:58.901Z,113
2023-12-11T14:24:58.856Z,108
2023-12-11T14:27:58.857Z,103
2023-12-11T14:29:58.866Z,106
2023-12-11T14:32:58.903Z,126
2023-12-11T14:34:58.894Z,101
2023-12-11T14:37:58.835Z,123
2023-12-11T14:39:58.880Z,143
2023-12-11T14:42:58.869Z,108
2023-12-11T14:44:58.857Z,136
2023-12-11T14:47:58.887Z,113
2023-12-11T14:49:59.368Z,90
2023-12-11T14:52:58.855Z,103
2023-12-11T14:54:58.869Z,108
2023-12-11T14:57:58.882Z,106
2023-12-11T14:59:58.869Z,106
2023-12-11T15:01:58.906Z,96
2023-12-11T15:04:58.868Z,119
2023-12-11T15:06:58.844Z,96
2023-12-11T15:09:58.896Z,108
2023-12-11T15:12:58.876Z,103
2023-12-11T15:15:58.888Z,87
2023-12-11T15:17:58.886Z,143
2023-12-11T15:20:58.821Z,104
2023-12-11T15:22:58.843Z,140
2023-12-11T15:24:58.899Z,100
2023-12-11T15:27:58.840Z,136
2023-12-11T15:29:58.853Z,168
2023-12-11T15:32:58.874Z,126
2023-12-11T15:35:58.794Z,143
2023-12-11T15:37:58.883Z,114
2023-12-11T15:40:58.826Z,165
2023-12-11T15:43:58.830Z,140
2023-12-11T15:45:58.839Z,100
2023-12-11T15:48:58.914Z,145
2023-12-11T15:51:58.861Z,82
2023-12-11T15:53:58.863Z,86
2023-12-11T15:56:58.858Z,144
2023-12-11T15:59:58.824Z,102
2023-12-11T16:01:58.900Z,101
2023-12-11T16:04:58.843Z,102
2023-12-11T16:07:58.798Z,127
2023-12-11T16:09:58.855Z,122
2023-12-11T16:12:58.868Z,86
2023-12-11T16:15:58.873Z,120
2023-12-11T16:17:58.900Z,108
2023-12-11T16:20:58.861Z,107
2023-12-11T16:22:58.890Z,119
2023-12-11T16:26:00.126Z,105
2023-12-11T16:27:58.855Z,122
2023-12-11T16:29:58.832Z,116
2023-12-11T16:32:58.854Z,144
2023-12-11T16:34:58.906Z,157
2023-12-11T16:37:58.839Z,161
2023-12-11T16:39:58.917Z,142
2023-12-11T16:42:58.877Z,132
2023-12-11T16:44:58.829Z,116
2023-12-11T16:46:58.869Z,96
2023-12-11T16:50:04.904Z,139
2023-12-11T16:51:58.893Z,98
2023-12-11T16:54:58.827Z,120
2023-12-11T16:56:58.890Z,119
2023-12-11T16:59:58.859Z,109
2023-12-11T17:02:58.852Z,114
2023-12-11T17:05:58.922Z,140
2023-12-11T17:07:58.897Z,93
2023-12-11T17:10:58.843Z,93
2023-12-11T17:13:59.267Z,118
2023-12-11T17:16:58.836Z,141
2023-12-11T17:18:58.941Z,121
2023-12-11T17:21:58.839Z,89
2023-12-11T17:23:58.839Z,148
2023-12-11T17:26:58.900Z,168
2023-12-11T17:29:59.965Z,130
2023-12-11T17:32:58.896Z,156
2023-12-11T17:34:58.896Z,147
2023-12-11T17:37:58.860Z,161
2023-12-11T17:40:58.856Z,148
2023-12-11T17:42:58.932Z,123
2023-12-11T17:45:58.909Z,131
2023-12-11T17:48:58.956Z,120
2023-12-11T17:50:58.864Z,164
2023-12-11T17:53:58.869Z,121
2023-12-11T17:56:58.884Z,140
2023-12-11T17:59:58.895Z,112
2023-12-11T18:01:58.890Z,103
2023-12-11T18:04:58.889Z,130
2023-12-11T18:06:58.894Z,113
2023-12-11T18:09:58.889Z,115
2023-12-11T18:12:58.845Z,172
2023-12-11T18:14:58.850Z,126
2023-12-11T18:16:58.875Z,94
2023-12-11T18:19:59.004Z,110
2023-12-11T18:22:00.419Z,143
2023-12-11T18:24:58.853Z,158
2023-12-11T18:26:58.869Z,137
2023-12-11T18:28:58.902Z,160
2023-12-11T18:31:58.874Z,123
2023-12-11T18:34:59.082Z,155
2023-12-11T18:36:59.141Z,161
2023-12-11T18:39:58.881Z,148
2023-12-11T18:41:58.956Z,170
2023-12-11T18:44:58.841Z,115
2023-12-11T18:46:59.559Z,125
2023-12-11T18:48:58.929Z,142
2023-12-11T18:51:58.907Z,145
2023-12-11T18:54:58.874Z,103
2023-12-11T18:56:58.879Z,129
2023-12-11T18:59:58.881Z,156
2023-12-11T19:02:58.919Z,129
2023-12-11T19:05:58.872Z,131
2023-12-11T19:07:58.873Z,142
2023-12-11T19:11:00.137Z,136
2023-12-11T19:12:58.896Z,135
2023-12-11T19:15:58.873Z,110
2023-12-11T19:18:58.920Z,129
2023-12-11T19:20:58.842Z,144
2023-12-11T19:23:58.991Z,148
2023-12-11T19:26:58.853Z,105
2023-12-11T19:29:58.818Z,119
2023-12-11T19:31:58.992Z,143
2023-12-11T19:34:59.091Z,150
2023-12-11T19:36:58.956Z,112
2023-12-11T19:39:58.879Z,134
2023-12-11T19:42:59.000Z,115
2023-12-11T19:45:58.832Z,156
2023-12-11T19:47:58.882Z,147
2023-12-11T19:50:58.867Z,159
2023-12-11T19:53:58.843Z,104
2023-12-11T19:55:58.869Z,130
2023-12-11T19:57:58.885Z,142
2023-12-11T19:59:58.885Z,125
2023-12-11T20:02:58.932Z,133
2023-12-11T20:05:58.900Z,173
2023-12-11T20:08:58.856Z,164
2023-12-11T20:12:03.477Z,143
2023-12-11T20:14:58.852Z,175
2023-12-11T20:17:58.887Z,150
2023-12-11T20:19:58.899Z,164
2023-12-11T20:21:58.999Z,191
2023-12-11T20:24:05.616Z,149
2023-12-11T20:26:58.833Z,178
2023-12-11T20:28:58.861Z,174
2023-12-11T20:31:58.813Z,221
2023-12-11T20:33:58.980Z,151
2023-12-11T20:36:58.874Z,143
2023-12-11T20:39:58.874Z,137
2023-12-11T20:42:58.930Z,155
2023-12-11T20:45:58.865Z,146
2023-12-11T20:48:58.902Z,138
2023-12-11T20:51:58.898Z,184
2023-12-11T20:53:58.836Z,146
2023-12-11T20:56:58.817Z,151
2023-12-11T20:58:58.852Z,89
2023-12-11T21:00:58.921Z,167
2023-12-11T21:03:58.974Z,78
2023-12-11T21:05:58.930Z,160
2023-12-11T21:08:58.963Z,136
2023-12-11T21:11:58.826Z,151
2023-12-11T21:13:58.869Z,149
2023-12-11T21:16:58.865Z,158
2023-12-11T21:18:59.047Z,138
2023-12-11T21:20:58.885Z,188
2023-12-11T21:24:58.886Z,123
2023-12-11T21:26:58.921Z,176
2023-12-11T21:29:58.850Z,110
2023-12-11T21:32:58.851Z,138
2023-12-11T21:35:58.883Z,159
2023-12-11T21:38:58.837Z,155
2023-12-11T21:41:58.852Z,166
2023-12-11T21:44:58.882Z,161
2023-12-11T21:47:58.877Z,171
2023-12-11T21:49:58.920Z,174
2023-12-11T21:51:59.386Z,96
2023-12-11T21:54:59.012Z,173
2023-12-11T21:56:58.919Z,170
2023-12-11T21:59:58.866Z,129
2023-12-11T22:01:58.989Z,187
2023-12-11T22:04:58.887Z,176
2023-12-11T22:06:58.906Z,229
2023-12-11T22:09:58.910Z,118
2023-12-11T22:12:58.863Z,166
2023-12-11T22:14:58.871Z,166
2023-12-11T22:16:58.880Z,159
2023-12-11T22:18:58.884Z,175
2023-12-11T22:21:58.881Z,128
2023-12-11T22:24:58.850Z,140
2023-12-11T22:27:58.930Z,137
2023-12-11T22:30:58.856Z,121
2023-12-11T22:32:58.886Z,160
2023-12-11T22:35:58.852Z,112
2023-12-11T22:38:58.882Z,128
2023-12-11T22:41:58.853Z,125
2023-12-11T22:43:58.860Z,184
2023-12-11T22:46:58.881Z,94
2023-12-11T22:48:58.961Z,103
2023-12-11T22:51:58.890Z,134
2023-12-11T22:54:58.831Z,159
2023-12-11T22:56:58.865Z,184
2023-12-11T22:59:58.932Z,133
2023-12-11T23:02:58.865Z,160
2023-12-11T23:04:58.996Z,135
2023-12-11T23:07:58.906Z,154
2023-12-11T23:09:58.884Z,195
2023-12-11T23:11:58.859Z,120
2023-12-11T23:14:58.831Z,187
2023-12-11T23:16:58.923Z,184
2023-12-11T23:19:58.917Z,141
2023-12-11T23:22:58.874Z,96
2023-12-11T23:26:01.457Z,165
2023-12-11T23:28:58.866Z,122
2023-12-11T23:31:58.863Z,148
2023-12-11T23:33:59.003Z,102
2023-12-11T23:36:58.869Z,117
2023-12-11T23:39:58.899Z,193
2023-12-11T23:41:58.846Z,198
2023-12-11T23:44:58.834Z,135
2023-12-11T23:46:58.857Z,121
2023-12-11T23:49:58.909Z,170
2023-12-11T23:51:58.862Z,172
2023-12-11T23:54:58.853Z,141
2023-12-11T23:56:58.872Z,158
2023-12-11T23:59:58.896Z,140
